vidspace.cc alexa rank chart, vidspace.cc alexa rank daily changes

vidspace.cc alexa rank chart, vidspace.cc alexa rank daily changes

vidspace.cc
Actual rank:
288 166

RANK HISTORY

Date Rank Diff
2016/12/02 288 166 +3 935
2016/12/01 284 231 +11 099
2016/11/30 273 132 +14 768
2016/11/29 258 364 +1 702
2016/11/28 256 662 -2 332
2016/11/27 258 994 -2 252
2016/11/26 261 246 +265
2016/11/25 260 981 +7 743
2016/11/24 253 238 +9 348
2016/11/23 243 890 -22 898
2016/11/19 266 788 -210
2016/11/18 266 998 +8 091
2016/11/17 258 907 +1 007
2016/11/16 257 900 -524
2016/11/15 258 424 -13 069
2016/11/14 271 493 -3 642
2016/11/13 275 135 -4 112
2016/11/12 279 247 -5 355
2016/11/11 284 602 -7 956
2016/11/10 292 558 -1 154
2016/11/09 293 712 -6 260
2016/11/08 299 972 -3 409
2016/11/07 303 381 -18 700
2016/11/06 322 081 -22 465
2016/11/05 344 546 -5 732
2016/11/04 350 278 +2 265
2016/11/03 348 013 -3 677
2016/11/02 351 690 +23 942
2016/11/01 327 748 -4 369
2016/10/31 332 117 -7 370
2016/10/30 339 487 -29 510
2016/10/29 368 997 -5 925
2016/10/28 374 922 -7 202
2016/10/27 382 124 +12 613
2016/10/26 369 511 +72
2016/10/25 369 439 -14 742
2016/10/24 384 181 -19 473
2016/10/23 403 654 +460
2016/10/22 403 194 +17 556
2016/10/21 385 638 -2 197
2016/10/20 387 835 +36 442
2016/10/19 351 393 +17 865
2016/10/18 333 528 -3 351
2016/10/17 336 879 +7 628
2016/10/16 329 251 -1 220
2016/10/15 330 471 +104 914
2016/10/14 225 557 +4 006
2016/10/13 221 551 +674
2016/10/12 220 877 +6 670
2016/10/11 214 207 -905
2016/10/10 215 112 +5 085
2016/10/09 210 027 -3 881
2016/10/08 213 908 -37 032
2016/10/07 250 940 +36 371
2016/10/06 214 569 -19 577
2016/10/05 234 146 -1 248
2016/10/04 235 394 -2 852
2016/10/03 238 246

WIDGET FOR YOUR SITE

DOMAINS WITH THE NEAREST RANK

Domain Rank
prepaidgiftbalance.com 288 161
zasmeshi.ru 288 162
ibsasp.com 288 163
pet-centar.hr 288 164
lenovo.ir 288 165
vidspace.cc 288 166
novokubanka.ru 288 167
soulmp3.in 288 168
mslu.by 288 169
zhenjiashuo.co 288 170
surlix.com 288 171

DOMAINS WITH THE NEAREST RANK BY TLD .cc

Domain Rank
roufan.cc 284 873
tiansin.cc 285 796
2016bt.cc 286 011
hmusic.cc 286 785
chechar.cc 287 006
vidspace.cc 288 166
gulfup.cc 289 962
pya.cc 289 963
cccat.cc 291 297
mce.cc 291 336
funlol.cc 291 386